createdAt,value
2018-06-30T00:01:49.920Z,10.13
2018-06-30T00:04:20.188Z,7.60
2018-06-30T00:06:50.180Z,8.27
2018-06-30T00:09:20.353Z,9.70
2018-06-30T00:11:50.556Z,10.43
2018-06-30T00:14:20.603Z,8.73
2018-06-30T00:16:50.490Z,8.80
2018-06-30T00:19:20.871Z,11.10
2018-06-30T00:21:51.385Z,9.03
2018-06-30T00:24:21.577Z,8.97
2018-06-30T00:26:55.610Z,13.33
2018-06-30T00:29:25.619Z,12.07
2018-06-30T00:31:55.533Z,8.60
2018-06-30T00:34:25.427Z,10.70
2018-06-30T00:36:55.444Z,10.13
2018-06-30T00:39:25.379Z,9.27
2018-06-30T00:41:55.604Z,9.63
2018-06-30T00:44:25.626Z,11.53
2018-06-30T00:46:55.776Z,9.70
2018-06-30T00:49:25.845Z,9.77
2018-06-30T00:51:55.725Z,10.70
2018-06-30T00:54:25.816Z,9.37
2018-06-30T00:56:55.812Z,9.47
2018-06-30T00:59:26.223Z,9.53
2018-06-30T01:01:56.188Z,9.07
2018-06-30T01:04:26.716Z,9.23
2018-06-30T01:06:57.176Z,9.87
2018-06-30T01:09:28.167Z,11.80
2018-06-30T01:11:58.143Z,9.83
2018-06-30T01:14:28.211Z,12.43
2018-06-30T01:16:58.385Z,12.70
2018-06-30T01:19:28.307Z,9.33
2018-06-30T01:21:58.311Z,10.97
2018-06-30T01:24:28.265Z,12.07
2018-06-30T01:26:58.620Z,9.97
2018-06-30T01:29:28.640Z,12.30
2018-06-30T01:31:58.619Z,12.03
2018-06-30T01:34:28.582Z,12.63
2018-06-30T01:36:58.493Z,12.73
2018-06-30T01:39:28.479Z,9.17
2018-06-30T01:41:58.374Z,11.13
2018-06-30T01:44:28.483Z,12.13
2018-06-30T01:46:58.907Z,13.20
2018-06-30T01:49:28.969Z,12.00
2018-06-30T01:51:58.936Z,11.90
2018-06-30T01:54:29.085Z,11.50
2018-06-30T01:56:58.985Z,13.90
2018-06-30T01:59:28.861Z,13.60
2018-06-30T02:01:59.196Z,12.43
2018-06-30T02:04:29.107Z,11.53
2018-06-30T02:06:58.957Z,13.37
2018-06-30T02:09:29.032Z,17.03
2018-06-30T02:11:59.115Z,13.10
2018-06-30T02:14:29.144Z,13.53
2018-06-30T02:16:59.105Z,12.33
2018-06-30T02:19:29.001Z,16.70
2018-06-30T02:21:58.941Z,12.90
2018-06-30T02:24:28.784Z,12.60
2018-06-30T02:26:58.993Z,12.70
2018-06-30T02:29:28.925Z,12.60
2018-06-30T02:31:58.849Z,13.67
2018-06-30T02:34:28.745Z,12.47
2018-06-30T02:36:58.692Z,14.20
2018-06-30T02:39:28.672Z,12.13
2018-06-30T02:41:58.557Z,17.07
2018-06-30T02:44:28.440Z,12.63
2018-06-30T02:46:58.820Z,15.30
2018-06-30T02:49:28.743Z,13.07
2018-06-30T02:51:59.060Z,16.67
2018-06-30T02:54:29.057Z,14.63
2018-06-30T02:56:59.131Z,15.00
2018-06-30T02:59:29.533Z,13.87
2018-06-30T03:01:59.437Z,14.23
2018-06-30T03:04:29.549Z,14.73
2018-06-30T03:06:59.502Z,14.33
2018-06-30T03:09:29.467Z,17.37
2018-06-30T03:11:59.417Z,13.67
2018-06-30T03:14:29.762Z,14.10
2018-06-30T03:16:59.948Z,13.40
2018-06-30T03:19:30.269Z,15.30
2018-06-30T03:22:00.134Z,13.37
2018-06-30T03:24:30.168Z,14.97
2018-06-30T03:27:00.397Z,13.33
2018-06-30T03:29:30.284Z,13.97
2018-06-30T03:32:00.178Z,13.23
2018-06-30T03:34:30.056Z,17.90
2018-06-30T03:36:59.908Z,13.20
2018-06-30T03:39:29.730Z,10.57
2018-06-30T03:41:59.607Z,12.83
2018-06-30T03:44:29.777Z,11.33
2018-06-30T03:46:59.900Z,13.20
2018-06-30T03:49:29.901Z,9.77
2018-06-30T03:51:59.789Z,8.50
2018-06-30T03:54:29.721Z,8.87
2018-06-30T03:56:59.633Z,9.53
2018-06-30T03:59:29.613Z,11.67
2018-06-30T04:01:59.786Z,14.10
2018-06-30T04:04:29.699Z,12.50
2018-06-30T04:06:59.649Z,11.50
2018-06-30T04:09:29.924Z,11.70
2018-06-30T04:11:59.893Z,12.43
2018-06-30T04:14:30.208Z,11.60
2018-06-30T04:17:00.117Z,11.53
2018-06-30T04:19:30.301Z,13.10
2018-06-30T04:22:00.146Z,12.17
2018-06-30T04:24:30.425Z,15.10
2018-06-30T04:27:00.492Z,15.80
2018-06-30T04:29:30.520Z,12.27
2018-06-30T04:32:00.480Z,11.67
2018-06-30T04:34:30.788Z,12.23
2018-06-30T04:37:00.841Z,12.00
2018-06-30T04:39:30.792Z,10.83
2018-06-30T04:42:00.785Z,14.03
2018-06-30T04:44:30.849Z,12.50
2018-06-30T04:47:00.940Z,11.93
2018-06-30T04:49:30.920Z,12.73
2018-06-30T04:52:01.014Z,11.30
2018-06-30T04:54:31.376Z,11.20
2018-06-30T04:57:01.351Z,10.57
2018-06-30T04:59:31.591Z,12.37
2018-06-30T05:02:01.677Z,11.53
2018-06-30T05:04:31.815Z,10.33
2018-06-30T05:07:01.732Z,13.43
2018-06-30T05:09:31.903Z,9.37
2018-06-30T05:12:02.776Z,9.50
2018-06-30T05:14:32.821Z,9.50
2018-06-30T05:17:02.910Z,10.90
2018-06-30T05:19:33.065Z,12.40
2018-06-30T05:22:03.080Z,11.43
2018-06-30T05:24:32.995Z,13.30
2018-06-30T05:27:03.369Z,10.90
2018-06-30T05:29:33.289Z,9.67
2018-06-30T05:32:03.191Z,10.87
2018-06-30T05:34:33.025Z,9.57
2018-06-30T05:37:02.956Z,9.97
2018-06-30T05:39:32.854Z,11.57
2018-06-30T05:42:02.845Z,8.63
2018-06-30T05:44:32.819Z,8.90
2018-06-30T05:47:02.935Z,12.70
2018-06-30T05:49:33.036Z,11.83
2018-06-30T05:52:02.928Z,9.30
2018-06-30T05:54:32.865Z,11.87
2018-06-30T05:57:02.912Z,9.37
2018-06-30T05:59:33.051Z,10.80
2018-06-30T06:02:03.259Z,12.53
2018-06-30T06:04:33.558Z,9.30
2018-06-30T06:07:03.938Z,10.10
2018-06-30T06:09:34.388Z,10.57
2018-06-30T06:12:04.431Z,7.57
2018-06-30T06:14:34.760Z,8.47
2018-06-30T06:17:04.971Z,13.60
2018-06-30T06:19:36.280Z,7.47
2018-06-30T06:22:07.533Z,12.17
2018-06-30T06:24:38.071Z,8.87
2018-06-30T06:27:08.319Z,9.90
2018-06-30T06:29:38.491Z,7.13
2018-06-30T06:32:09.076Z,8.83
2018-06-30T06:34:39.356Z,9.37
2018-06-30T06:37:09.699Z,8.63
2018-06-30T06:39:39.886Z,11.30
2018-06-30T06:42:10.168Z,7.23
2018-06-30T06:44:40.356Z,11.80
2018-06-30T06:47:11.059Z,9.77
2018-06-30T06:49:41.274Z,6.13
2018-06-30T06:52:11.819Z,8.17
2018-06-30T06:54:42.262Z,9.43
2018-06-30T06:57:12.536Z,5.10
2018-06-30T06:59:42.946Z,5.10
2018-06-30T07:02:13.220Z,7.43
2018-06-30T07:04:43.546Z,10.57
2018-06-30T07:07:14.190Z,9.90
2018-06-30T07:09:44.299Z,7.20
2018-06-30T07:12:14.512Z,12.17
2018-06-30T07:14:44.905Z,6.43
2018-06-30T07:17:15.072Z,7.57
2018-06-30T07:19:45.661Z,9.63
2018-06-30T07:22:15.968Z,6.70
2018-06-30T07:24:46.200Z,7.27
2018-06-30T07:27:16.705Z,9.10
2018-06-30T07:29:47.364Z,7.60
2018-06-30T07:32:17.676Z,5.87
2018-06-30T07:34:47.922Z,6.57
2018-06-30T07:37:18.189Z,9.37
2018-06-30T07:39:48.589Z,7.97
2018-06-30T07:42:18.960Z,6.00
2018-06-30T07:44:49.656Z,5.97
2018-06-30T07:47:20.409Z,4.20
2018-06-30T07:49:51.008Z,8.03
2018-06-30T07:52:21.220Z,8.07
2018-06-30T07:54:51.531Z,7.10
2018-06-30T07:57:21.676Z,5.33
2018-06-30T07:59:52.151Z,9.03
2018-06-30T08:02:22.302Z,10.03
2018-06-30T08:04:52.616Z,7.57
2018-06-30T08:07:22.828Z,6.57
2018-06-30T08:09:53.092Z,7.57
2018-06-30T08:12:23.268Z,9.03
2018-06-30T08:14:53.631Z,7.57
2018-06-30T08:17:23.908Z,6.07
2018-06-30T08:19:54.284Z,5.27
2018-06-30T08:22:24.507Z,5.37
2018-06-30T08:24:54.665Z,8.30
2018-06-30T08:27:25.089Z,16.60
2018-06-30T08:29:55.498Z,8.57
2018-06-30T08:32:25.825Z,7.70
2018-06-30T08:34:55.982Z,12.53
2018-06-30T08:37:26.290Z,8.93
2018-06-30T08:39:56.497Z,9.20
2018-06-30T08:42:26.814Z,13.03
2018-06-30T08:44:56.954Z,8.93
2018-06-30T08:47:27.480Z,9.17
2018-06-30T08:49:57.534Z,10.77
2018-06-30T08:52:27.665Z,10.87
2018-06-30T08:54:58.316Z,11.73
2018-06-30T08:57:28.377Z,11.47
2018-06-30T08:59:58.655Z,10.07
2018-06-30T09:02:28.794Z,11.30
2018-06-30T09:04:58.942Z,12.00
2018-06-30T09:07:29.204Z,14.00
2018-06-30T09:09:59.475Z,9.80
2018-06-30T09:12:29.830Z,9.70
2018-06-30T09:15:00.046Z,11.40
2018-06-30T09:17:30.575Z,12.80
2018-06-30T09:20:00.908Z,12.30
2018-06-30T09:22:31.257Z,11.00
2018-06-30T09:25:01.493Z,12.13
2018-06-30T09:27:31.861Z,10.20
2018-06-30T09:30:02.046Z,10.13
2018-06-30T09:32:32.503Z,13.73
2018-06-30T09:35:02.781Z,11.03
2018-06-30T09:37:33.449Z,11.03
2018-06-30T09:40:03.633Z,11.27
2018-06-30T09:42:39.480Z,11.20
2018-06-30T09:45:09.693Z,10.70
2018-06-30T09:47:40.259Z,9.67
2018-06-30T09:50:10.931Z,9.67
2018-06-30T09:52:41.325Z,9.70
2018-06-30T09:55:11.560Z,11.20
2018-06-30T09:57:42.094Z,9.43
2018-06-30T10:00:16.318Z,9.50
2018-06-30T10:02:46.792Z,13.67
2018-06-30T10:05:17.267Z,9.73
2018-06-30T10:07:47.992Z,12.93
2018-06-30T10:10:18.274Z,11.00
2018-06-30T10:12:48.879Z,8.20
2018-06-30T10:15:19.134Z,9.47
2018-06-30T10:17:49.611Z,8.40
2018-06-30T10:20:19.847Z,12.67
2018-06-30T10:22:50.229Z,10.30
2018-06-30T10:25:20.514Z,9.93
2018-06-30T10:27:50.793Z,10.53
2018-06-30T10:30:21.084Z,9.67
2018-06-30T10:32:51.425Z,8.83
2018-06-30T10:35:21.708Z,8.73
2018-06-30T10:37:52.136Z,9.20
2018-06-30T10:40:22.848Z,14.67
2018-06-30T10:42:53.091Z,9.60
2018-06-30T10:45:23.302Z,11.83
2018-06-30T10:47:53.651Z,9.17
2018-06-30T10:50:23.997Z,10.40
2018-06-30T10:52:54.612Z,11.27
2018-06-30T10:55:26.000Z,8.87
2018-06-30T10:57:56.496Z,9.63
2018-06-30T11:00:27.253Z,9.60
2018-06-30T11:02:57.393Z,8.33
2018-06-30T11:05:27.817Z,8.73
2018-06-30T11:07:57.856Z,9.80
2018-06-30T11:10:28.372Z,8.70
2018-06-30T11:12:58.800Z,8.40
2018-06-30T11:15:28.924Z,10.03
2018-06-30T11:17:59.188Z,7.77
2018-06-30T11:20:29.976Z,9.13
2018-06-30T11:23:00.139Z,10.83
2018-06-30T11:25:30.546Z,9.20
2018-06-30T11:28:00.835Z,7.53
2018-06-30T11:30:31.341Z,7.50
2018-06-30T11:33:01.647Z,10.37
2018-06-30T11:35:32.008Z,7.50
2018-06-30T11:38:02.328Z,10.63
2018-06-30T11:40:32.670Z,6.80
2018-06-30T11:43:03.007Z,7.43
2018-06-30T11:45:33.289Z,6.90
2018-06-30T11:48:03.940Z,6.57
2018-06-30T11:50:34.235Z,6.83
2018-06-30T11:53:04.645Z,6.87
2018-06-30T11:55:34.854Z,8.07
2018-06-30T11:58:05.108Z,5.60
2018-06-30T12:00:35.342Z,6.27
2018-06-30T12:03:06.022Z,6.80
2018-06-30T12:05:36.351Z,7.63
2018-06-30T12:08:06.758Z,7.17
2018-06-30T12:10:37.326Z,6.93
2018-06-30T12:13:07.666Z,7.00
2018-06-30T12:15:38.019Z,6.43
2018-06-30T12:18:08.609Z,7.30
2018-06-30T12:20:38.929Z,6.87
2018-06-30T12:23:09.147Z,6.80
2018-06-30T12:25:39.497Z,7.00
2018-06-30T12:28:09.714Z,7.37
2018-06-30T12:30:39.949Z,10.77
2018-06-30T12:33:10.126Z,6.83
2018-06-30T12:35:40.407Z,7.97
2018-06-30T12:38:10.598Z,8.67
2018-06-30T12:40:40.921Z,6.60
2018-06-30T12:43:11.060Z,7.50
2018-06-30T12:45:41.293Z,6.83
2018-06-30T12:48:11.889Z,7.60
2018-06-30T12:50:42.279Z,7.40
2018-06-30T12:53:12.523Z,10.17
2018-06-30T12:55:43.087Z,6.40
2018-06-30T12:58:13.493Z,7.50
2018-06-30T13:00:43.853Z,9.67
2018-06-30T13:03:13.991Z,7.67
2018-06-30T13:05:44.421Z,7.07
2018-06-30T13:08:15.135Z,7.37
2018-06-30T13:10:45.332Z,6.80
2018-06-30T13:13:15.623Z,8.00
2018-06-30T13:15:45.802Z,7.80
2018-06-30T13:18:16.251Z,6.90
2018-06-30T13:20:46.556Z,6.00
2018-06-30T13:23:17.232Z,6.53
2018-06-30T13:25:48.432Z,6.00
2018-06-30T13:28:18.888Z,6.57
2018-06-30T13:30:49.025Z,6.17
2018-06-30T13:33:19.313Z,6.13
2018-06-30T13:35:49.506Z,6.00
2018-06-30T13:38:19.985Z,5.67
2018-06-30T13:40:50.356Z,6.13
2018-06-30T13:43:20.799Z,6.00
2018-06-30T13:45:51.358Z,7.27
2018-06-30T13:48:22.220Z,5.93
2018-06-30T13:50:52.433Z,6.00
2018-06-30T13:53:22.936Z,8.07
2018-06-30T13:55:53.250Z,6.03
2018-06-30T13:58:23.437Z,6.20
2018-06-30T14:00:53.821Z,6.93
2018-06-30T14:03:24.137Z,5.77
2018-06-30T14:05:54.365Z,5.67
2018-06-30T14:08:24.441Z,6.70
2018-06-30T14:10:54.507Z,7.50
2018-06-30T14:13:24.641Z,5.73
2018-06-30T14:15:54.851Z,6.40
2018-06-30T14:18:25.075Z,7.27
2018-06-30T14:20:55.188Z,5.23
2018-06-30T14:23:25.497Z,4.77
2018-06-30T14:25:55.375Z,5.00
2018-06-30T14:28:25.388Z,4.50
2018-06-30T14:30:55.374Z,4.60
2018-06-30T14:33:25.376Z,4.73
2018-06-30T14:35:55.353Z,4.63
2018-06-30T14:38:25.380Z,4.53
2018-06-30T14:40:55.431Z,6.93
2018-06-30T14:43:25.603Z,6.63
2018-06-30T14:45:55.558Z,7.27
2018-06-30T14:48:26.557Z,7.07
2018-06-30T14:50:56.533Z,14.20
2018-06-30T14:53:26.668Z,22.10
2018-06-30T14:55:56.692Z,6.57
2018-06-30T14:58:26.842Z,20.60
2018-06-30T15:00:56.860Z,11.13
2018-06-30T15:03:26.923Z,6.23
2018-06-30T15:05:57.029Z,5.73
2018-06-30T15:08:27.156Z,6.10
2018-06-30T15:10:57.407Z,6.67
2018-06-30T15:13:27.524Z,5.83
2018-06-30T15:15:57.585Z,5.90
2018-06-30T15:18:27.761Z,8.33
2018-06-30T15:20:57.648Z,5.80
2018-06-30T15:23:27.810Z,5.93
2018-06-30T15:25:57.871Z,6.90
2018-06-30T15:28:28.139Z,6.60
2018-06-30T15:30:58.248Z,6.97
2018-06-30T15:33:28.278Z,7.97
2018-06-30T15:35:58.546Z,6.43
2018-06-30T15:38:28.768Z,7.37
2018-06-30T15:40:58.855Z,6.07
2018-06-30T15:43:28.856Z,6.17
2018-06-30T15:45:58.972Z,6.40
2018-06-30T15:48:29.225Z,7.23
2018-06-30T15:50:59.659Z,7.00
2018-06-30T15:53:29.681Z,9.77
2018-06-30T15:56:01.277Z,14.27
2018-06-30T15:58:31.303Z,12.77
2018-06-30T16:01:01.397Z,11.00
2018-06-30T16:03:31.857Z,10.57
2018-06-30T16:06:02.162Z,10.40
2018-06-30T16:08:32.378Z,10.37
2018-06-30T16:11:02.532Z,11.20
2018-06-30T16:13:32.596Z,18.87
2018-06-30T16:16:02.766Z,14.70
2018-06-30T16:18:32.820Z,13.97
2018-06-30T16:21:09.380Z,13.47
2018-06-30T16:23:39.331Z,14.53
2018-06-30T16:26:09.477Z,15.10
2018-06-30T16:28:39.696Z,14.37
2018-06-30T16:31:09.854Z,15.37
2018-06-30T16:33:39.840Z,22.10
2018-06-30T16:36:10.151Z,16.97
2018-06-30T16:38:40.271Z,19.53
2018-06-30T16:41:10.238Z,19.97
2018-06-30T16:43:40.582Z,12.73
2018-06-30T16:46:10.916Z,11.17
2018-06-30T16:48:41.401Z,9.80
2018-06-30T16:51:12.053Z,9.57
2018-06-30T16:53:42.220Z,9.40
2018-06-30T16:56:12.396Z,12.67
2018-06-30T16:58:42.834Z,12.87
2018-06-30T17:01:12.789Z,10.90
2018-06-30T17:03:42.888Z,10.00
2018-06-30T17:06:13.006Z,10.07
2018-06-30T17:08:43.283Z,9.37
2018-06-30T17:11:13.380Z,11.33
2018-06-30T17:13:43.392Z,12.83
2018-06-30T17:16:13.453Z,10.63
2018-06-30T17:18:43.463Z,10.17
2018-06-30T17:21:13.544Z,9.30
2018-06-30T17:23:43.561Z,9.80
2018-06-30T17:26:13.641Z,9.17
2018-06-30T17:28:43.933Z,8.70
2018-06-30T17:31:14.092Z,8.93
2018-06-30T17:33:44.111Z,9.03
2018-06-30T17:36:14.222Z,8.43
2018-06-30T17:38:44.552Z,9.73
2018-06-30T17:41:14.555Z,9.83
2018-06-30T17:43:44.928Z,9.80
2018-06-30T17:46:14.934Z,12.17
2018-06-30T17:48:45.385Z,10.23
2018-06-30T17:51:15.330Z,10.57
2018-06-30T17:53:45.502Z,10.10
2018-06-30T17:56:15.412Z,10.80
2018-06-30T17:58:45.529Z,10.10
2018-06-30T18:01:15.970Z,10.57
2018-06-30T18:03:46.161Z,11.07
2018-06-30T18:06:16.287Z,9.97
2018-06-30T18:08:46.399Z,10.13
2018-06-30T18:11:16.333Z,11.43
2018-06-30T18:13:46.463Z,10.33
2018-06-30T18:16:16.534Z,10.00
2018-06-30T18:18:46.804Z,11.03
2018-06-30T18:21:16.828Z,9.93
2018-06-30T18:23:47.093Z,10.17
2018-06-30T18:26:17.148Z,9.20
2018-06-30T18:28:47.516Z,9.73
2018-06-30T18:31:17.909Z,9.60
2018-06-30T18:33:48.260Z,9.73
2018-06-30T18:36:18.284Z,14.20
2018-06-30T18:38:48.653Z,12.00
2018-06-30T18:41:18.696Z,14.07
2018-06-30T18:43:48.837Z,19.00
2018-06-30T18:46:18.938Z,15.47
2018-06-30T18:48:49.515Z,13.83
2018-06-30T18:51:19.599Z,13.63
2018-06-30T18:53:49.723Z,11.47
2018-06-30T18:56:20.057Z,10.67
2018-06-30T18:58:50.216Z,11.60
2018-06-30T19:01:20.293Z,13.83
2018-06-30T19:03:50.305Z,14.03
2018-06-30T19:06:20.865Z,16.13
2018-06-30T19:08:50.840Z,14.63
2018-06-30T19:11:20.956Z,25.17
2018-06-30T19:13:51.114Z,15.67
2018-06-30T19:16:21.501Z,27.53
2018-06-30T19:18:51.503Z,25.97
2018-06-30T19:21:22.089Z,30.60
2018-06-30T19:23:52.179Z,32.20
2018-06-30T19:26:22.415Z,41.43
2018-06-30T19:28:52.590Z,31.57
2018-06-30T19:31:22.927Z,24.13
2018-06-30T19:33:53.045Z,24.17
2018-06-30T19:36:23.136Z,26.53
2018-06-30T19:38:53.310Z,24.33
2018-06-30T19:41:23.460Z,22.47
2018-06-30T19:43:53.557Z,21.53
2018-06-30T19:46:23.669Z,24.50
2018-06-30T19:48:53.650Z,23.23
2018-06-30T19:51:23.709Z,20.33
2018-06-30T19:53:54.109Z,25.50
2018-06-30T19:56:24.420Z,28.40
2018-06-30T19:58:54.763Z,28.23
2018-06-30T20:01:24.796Z,28.57
2018-06-30T20:03:54.888Z,30.07
2018-06-30T20:06:24.949Z,28.13
2018-06-30T20:08:55.043Z,24.70
2018-06-30T20:11:25.122Z,22.23
2018-06-30T20:13:55.212Z,19.40
2018-06-30T20:16:25.591Z,17.43
2018-06-30T20:18:55.695Z,16.37
2018-06-30T20:21:25.844Z,26.20
2018-06-30T20:23:56.356Z,24.17
2018-06-30T20:26:26.792Z,24.80
2018-06-30T20:28:56.809Z,24.23
2018-06-30T20:31:26.999Z,19.63
2018-06-30T20:33:57.232Z,17.17
2018-06-30T20:36:27.349Z,17.20
2018-06-30T20:38:57.373Z,21.93
2018-06-30T20:41:27.560Z,20.73
2018-06-30T20:43:57.541Z,17.47
2018-06-30T20:46:27.672Z,22.93
2018-06-30T20:48:57.902Z,22.53
2018-06-30T20:51:28.321Z,22.10
2018-06-30T20:53:58.376Z,24.20
2018-06-30T20:56:28.479Z,19.43
2018-06-30T20:58:58.508Z,20.60
2018-06-30T21:01:28.625Z,16.07
2018-06-30T21:03:58.636Z,14.67
2018-06-30T21:06:28.892Z,12.67
2018-06-30T21:08:58.892Z,15.13
2018-06-30T21:11:29.064Z,12.97
2018-06-30T21:13:59.096Z,11.43
2018-06-30T21:16:29.181Z,10.27
2018-06-30T21:18:59.149Z,9.90
2018-06-30T21:21:29.526Z,14.33
2018-06-30T21:23:59.504Z,19.13
2018-06-30T21:26:29.577Z,16.13
2018-06-30T21:28:59.476Z,12.30
2018-06-30T21:31:29.531Z,14.80
2018-06-30T21:33:59.760Z,11.70
2018-06-30T21:36:29.871Z,11.37
2018-06-30T21:39:00.185Z,13.37
2018-06-30T21:41:30.194Z,15.60
2018-06-30T21:44:00.224Z,11.30
2018-06-30T21:46:30.467Z,13.97
2018-06-30T21:49:00.728Z,20.03
2018-06-30T21:51:30.767Z,17.53
2018-06-30T21:54:00.843Z,23.37
2018-06-30T21:56:30.837Z,22.13
2018-06-30T21:59:01.281Z,23.60
2018-06-30T22:01:31.502Z,15.83
2018-06-30T22:04:01.670Z,21.83
2018-06-30T22:06:31.706Z,23.80
2018-06-30T22:09:01.763Z,22.70
2018-06-30T22:11:31.875Z,20.27
2018-06-30T22:14:01.877Z,18.77
2018-06-30T22:16:32.816Z,17.80
2018-06-30T22:19:02.764Z,22.07
2018-06-30T22:21:32.668Z,21.63
2018-06-30T22:24:02.605Z,26.77
2018-06-30T22:26:32.528Z,26.70
2018-06-30T22:29:02.369Z,20.53
2018-06-30T22:31:32.299Z,20.17
2018-06-30T22:34:02.427Z,20.40
2018-06-30T22:36:32.495Z,20.20
2018-06-30T22:39:02.536Z,20.37
2018-06-30T22:41:32.605Z,20.97
2018-06-30T22:44:02.466Z,21.73
2018-06-30T22:46:32.908Z,19.27
2018-06-30T22:49:02.761Z,13.43
2018-06-30T22:51:33.117Z,18.53
2018-06-30T22:54:02.978Z,16.57
2018-06-30T22:56:32.711Z,15.37
2018-06-30T22:59:02.713Z,15.13
2018-06-30T23:01:33.124Z,13.53
2018-06-30T23:04:03.307Z,15.23
2018-06-30T23:06:33.304Z,13.57
2018-06-30T23:09:03.711Z,13.50
2018-06-30T23:11:33.757Z,13.13
2018-06-30T23:14:04.152Z,15.67
2018-06-30T23:16:34.051Z,13.10
2018-06-30T23:19:04.293Z,12.10
2018-06-30T23:21:34.251Z,12.13
2018-06-30T23:24:04.720Z,13.57
2018-06-30T23:26:34.639Z,12.97
2018-06-30T23:29:04.836Z,12.20
2018-06-30T23:31:34.774Z,12.90
2018-06-30T23:34:04.760Z,14.10
2018-06-30T23:36:34.699Z,15.03
2018-06-30T23:39:07.269Z,18.17
2018-06-30T23:41:37.185Z,22.67
2018-06-30T23:44:07.439Z,20.87
2018-06-30T23:46:37.513Z,21.90
2018-06-30T23:49:07.462Z,16.90
2018-06-30T23:51:37.353Z,17.87
2018-06-30T23:54:07.351Z,17.83
2018-06-30T23:56:37.348Z,16.90
2018-06-30T23:59:07.352Z,16.90
